Time;durP1;ratioP1;P1;durP2;ratioP2;P2;SDS_P1;SDS_P2;PMS_P1;PMS_P2;Temp;Humidity;BMP_temperature;BMP_pressure;BME280_temperature;BME280_humidity;BME280_pressure;Samples;Min_cycle;Max_cycle;Signal;HPM_P1;HPM_P2
2020/12/11 00:00:45;;;;;;;23.77;13.48;;;;;;;19.10;46.96;100118.42;2296610;77;50787;-74
2020/12/11 00:03:48;;;;;;;25.05;14.13;;;;;;;19.09;46.96;100117.61;2296899;77;51528;-74
2020/12/11 00:06:50;;;;;;;25.45;14.95;;;;;;;19.10;46.92;100119.77;2296967;77;51393;-75
2020/12/11 00:09:52;;;;;;;26.25;14.03;;;;;;;19.08;47.01;100129.86;2296807;77;51568;-76
2020/12/11 00:12:54;;;;;;;25.57;14.33;;;;;;;19.06;46.97;100123.38;2296851;76;50441;-74
2020/12/11 00:16:00;;;;;;;26.93;14.90;;;;;;;19.04;46.98;100120.06;2296866;77;52246;-75
2020/12/11 00:19:00;;;;;;;23.50;14.30;;;;;;;19.06;46.99;100126.55;2296869;77;22382;-74
2020/12/11 00:22:02;;;;;;;24.55;14.55;;;;;;;19.04;47.02;100123.26;2297888;77;50399;-75
2020/12/11 00:25:05;;;;;;;22.93;14.25;;;;;;;19.02;47.04;100113.23;2297567;77;50642;-75
2020/12/11 00:28:07;;;;;;;25.97;14.10;;;;;;;19.00;47.07;100115.28;2296544;77;50693;-74
2020/12/11 00:31:09;;;;;;;26.70;14.87;;;;;;;18.99;47.05;100106.94;2296481;77;50732;-75
2020/12/11 00:34:11;;;;;;;24.37;13.98;;;;;;;18.99;47.06;100110.96;2296786;77;51469;-73
2020/12/11 00:37:14;;;;;;;23.05;13.38;;;;;;;18.98;47.04;100107.43;2296879;77;50699;-74
2020/12/11 00:40:16;;;;;;;25.70;14.90;;;;;;;18.95;47.06;100089.58;2296953;77;50391;-74
2020/12/11 00:43:18;;;;;;;24.90;13.60;;;;;;;18.93;47.09;100090.63;2296847;77;50715;-76
2020/12/11 00:46:26;;;;;;;24.30;14.47;;;;;;;18.92;47.10;100090.29;2296938;77;51536;-74
2020/12/11 00:49:28;;;;;;;25.40;14.05;;;;;;;18.93;47.12;100077.70;2296340;77;51540;-75
2020/12/11 00:52:30;;;;;;;25.30;13.85;;;;;;;18.91;47.16;100082.47;2296915;77;52184;-74
2020/12/11 00:55:32;;;;;;;25.17;14.33;;;;;;;18.89;47.23;100079.97;2296984;77;50362;-75
2020/12/11 00:58:35;;;;;;;25.20;14.47;;;;;;;18.87;47.26;100075.31;2296627;77;50643;-75
2020/12/11 01:01:37;;;;;;;25.08;13.83;;;;;;;18.85;47.27;100070.66;2296620;77;51467;-74
2020/12/11 01:04:39;;;;;;;21.75;13.18;;;;;;;18.84;47.28;100069.02;2296485;77;50298;-75
2020/12/11 01:07:42;;;;;;;26.05;14.43;;;;;;;18.83;47.33;100076.75;2296576;77;50474;-74
2020/12/11 01:10:44;;;;;;;25.02;13.88;;;;;;;18.81;47.37;100069.42;2296458;77;50703;-74
2020/12/11 01:13:46;;;;;;;23.18;13.78;;;;;;;18.81;47.35;100059.22;2270402;77;51500;-73
2020/12/11 01:16:48;;;;;;;20.25;13.43;;;;;;;18.80;47.33;100065.06;2259535;78;51529;-75
2020/12/11 01:19:50;;;;;;;23.90;13.65;;;;;;;18.77;47.37;100062.78;2259392;78;51521;-75
2020/12/11 01:22:53;;;;;;;24.23;12.98;;;;;;;18.77;47.37;100062.78;2259523;78;50372;-75
2020/12/11 01:25:55;;;;;;;23.57;13.90;;;;;;;18.77;47.36;100065.47;2259393;78;50399;-75
2020/12/11 01:28:57;;;;;;;22.48;13.70;;;;;;;18.75;47.42;100063.49;2259132;78;50736;-74
2020/12/11 01:31:59;;;;;;;22.58;13.43;;;;;;;18.75;47.40;100062.16;2260508;77;51582;-74
2020/12/11 01:35:01;;;;;;;23.12;13.40;;;;;;;18.75;47.34;100065.31;2296757;77;51506;-75
2020/12/11 01:38:04;;;;;;;22.45;12.98;;;;;;;18.73;47.38;100062.86;2296923;77;51563;-75
2020/12/11 01:41:06;;;;;;;24.45;13.38;;;;;;;18.71;47.40;100061.70;2296746;77;52374;-75
2020/12/11 01:44:11;;;;;;;21.23;12.98;;;;;;;18.72;47.34;100054.48;2296876;77;50728;-74
2020/12/11 01:47:13;;;;;;;21.07;12.45;;;;;;;18.70;47.42;100055.19;2296027;77;50396;-75
2020/12/11 01:50:24;;;;;;;20.72;13.53;;;;;;;18.70;47.40;100057.87;2296926;77;50718;-75
2020/12/11 01:53:19;;;;;;;25.25;14.00;;;;;;;18.68;47.39;100050.05;2293916;77;22283;-75
2020/12/11 01:56:21;;;;;;;21.35;12.93;;;;;;;18.67;47.41;100052.91;2296689;77;50250;-75
2020/12/11 01:59:32;;;;;;;21.80;13.08;;;;;;;18.66;47.40;100056.63;2296764;77;50755;-75
2020/12/11 02:02:37;;;;;;;22.93;13.38;;;;;;;18.65;47.44;100052.27;2285899;77;51554;-75
2020/12/11 02:05:39;;;;;;;21.60;13.03;;;;;;;18.62;47.44;100040.62;2273014;77;50081;-75
2020/12/11 02:08:41;;;;;;;20.55;13.35;;;;;;;18.62;47.41;100044.12;2296744;77;50368;-76
2020/12/11 02:11:43;;;;;;;20.90;12.90;;;;;;;18.62;47.42;100047.31;2296954;77;50687;-75
2020/12/11 02:14:48;;;;;;;20.60;12.90;;;;;;;18.60;47.40;100039.98;2296839;76;51554;-75
2020/12/11 02:17:55;;;;;;;23.33;12.60;;;;;;;18.61;47.45;100040.31;2297139;77;51499;-75
2020/12/11 02:20:54;;;;;;;21.68;12.30;;;;;;;18.58;47.46;100034.84;2297477;77;22964;-75
2020/12/11 02:23:56;;;;;;;21.87;12.95;;;;;;;18.58;47.45;100038.03;2298091;77;50431;-74
2020/12/11 02:27:00;;;;;;;21.87;13.15;;;;;;;18.56;47.52;100038.74;2298083;77;50406;-73
2020/12/11 02:30:04;;;;;;;21.60;13.00;;;;;;;18.56;47.53;100038.74;2296532;77;51478;-73
2020/12/11 02:33:06;;;;;;;21.68;13.22;;;;;;;18.53;47.50;100029.25;2298062;77;50343;-72
2020/12/11 02:36:08;;;;;;;20.80;12.88;;;;;;;18.53;47.52;100024.41;2298049;77;50717;-72
2020/12/11 02:39:10;;;;;;;20.95;12.53;;;;;;;18.52;47.48;100023.55;2298009;77;51528;-73
2020/12/11 02:42:12;;;;;;;22.37;13.28;;;;;;;18.50;47.51;100020.27;2297149;77;51511;-73
2020/12/11 02:45:15;;;;;;;20.27;12.53;;;;;;;18.49;47.53;100016.73;2296786;77;50372;-74
2020/12/11 02:48:17;;;;;;;21.75;12.35;;;;;;;18.50;47.52;100020.27;2296563;77;50394;-72
2020/12/11 02:51:19;;;;;;;19.52;12.05;;;;;;;18.49;47.51;100011.90;2296797;77;51576;-74
2020/12/11 02:54:21;;;;;;;20.80;12.85;;;;;;;18.47;47.51;100005.42;2296579;77;51514;-74
2020/12/11 02:57:23;;;;;;;19.57;11.95;;;;;;;18.47;47.53;100003.23;2296918;77;51407;-74
2020/12/11 03:00:26;;;;;;;19.67;12.05;;;;;;;18.46;47.52;99995.71;2296845;77;50363;-74
2020/12/11 03:03:28;;;;;;;22.37;12.40;;;;;;;18.45;47.55;99994.59;2296943;77;50325;-74
2020/12/11 03:06:31;;;;;;;21.95;12.95;;;;;;;18.44;47.52;99995.08;2297037;77;52133;-74
2020/12/11 03:09:34;;;;;;;22.25;12.75;;;;;;;18.42;47.58;99984.24;2296957;77;50445;-74
2020/12/11 03:12:36;;;;;;;22.25;13.45;;;;;;;18.41;47.59;99982.08;2297129;77;51516;-74
2020/12/11 03:15:38;;;;;;;20.08;12.43;;;;;;;18.41;47.62;99983.42;2297404;76;50169;-74
2020/12/11 03:18:41;;;;;;;18.77;12.07;;;;;;;18.40;47.61;99986.32;2297473;77;50419;-74
2020/12/11 03:21:43;;;;;;;18.75;11.83;;;;;;;18.39;47.58;99980.11;2297594;77;50715;-74
2020/12/11 03:24:45;;;;;;;22.77;11.93;;;;;;;18.38;47.59;99977.65;2297630;77;51477;-73
2020/12/11 03:27:47;;;;;;;20.25;11.68;;;;;;;18.38;47.60;99972.29;2297509;77;51607;-72
2020/12/11 03:30:49;;;;;;;21.42;12.55;;;;;;;18.37;47.58;99975.98;2297393;77;51523;-72
2020/12/11 03:33:52;;;;;;;20.50;12.55;;;;;;;18.38;47.57;99978.98;2297509;77;50339;-72
2020/12/11 03:36:54;;;;;;;22.42;12.75;;;;;;;18.36;47.60;99987.73;2297392;77;50387;-74
2020/12/11 03:39:56;;;;;;;19.35;11.35;;;;;;;18.35;47.54;99982.89;2297058;77;51520;-73
2020/12/11 03:42:58;;;;;;;21.55;12.25;;;;;;;18.34;47.58;99980.39;2297165;77;51556;-72
2020/12/11 03:46:00;;;;;;;20.12;12.45;;;;;;;18.34;47.60;99972.36;2297014;77;51495;-73
2020/12/11 03:49:02;;;;;;;21.55;11.93;;;;;;;18.32;47.60;99963.20;2296752;77;50394;-73
2020/12/11 03:52:05;;;;;;;18.80;12.03;;;;;;;18.30;47.60;99959.89;2296800;77;50372;-74
2020/12/11 03:55:07;;;;;;;18.00;11.65;;;;;;;18.30;47.58;99955.87;2296958;77;50346;-74
2020/12/11 03:58:09;;;;;;;19.82;11.78;;;;;;;18.28;47.64;99955.23;2296938;77;50353;-73
2020/12/11 04:01:15;;;;;;;21.42;11.60;;;;;;;18.26;47.65;99958.13;2296732;77;50746;-73
2020/12/11 04:04:17;;;;;;;19.55;12.28;;;;;;;18.27;47.61;99953.59;2296839;77;50433;-74
2020/12/11 04:07:19;;;;;;;18.12;11.55;;;;;;;18.26;47.59;99947.42;2296675;77;50244;-73
2020/12/11 04:10:22;;;;;;;23.32;12.53;;;;;;;18.26;47.59;99953.27;2296508;77;50696;-73
2020/12/11 04:13:24;;;;;;;20.05;12.05;;;;;;;18.25;47.59;99959.66;2296808;77;51496;-74
2020/12/11 04:16:26;;;;;;;22.25;11.95;;;;;;;18.26;47.57;99951.92;2296992;77;51464;-75
2020/12/11 04:19:28;;;;;;;20.43;12.07;;;;;;;18.23;47.58;99944.30;2296751;77;50378;-74
2020/12/11 04:22:30;;;;;;;18.77;11.35;;;;;;;18.24;47.55;99945.45;2296994;77;52120;-74
2020/12/11 04:25:33;;;;;;;19.17;11.78;;;;;;;18.22;47.54;99941.31;2296854;77;50348;-74
2020/12/11 04:28:35;;;;;;;18.73;11.63;;;;;;;18.20;47.58;99935.32;2296777;77;50321;-74
2020/12/11 04:31:37;;;;;;;18.62;11.50;;;;;;;18.18;47.58;99931.48;2296842;77;50724;-72
2020/12/11 04:34:39;;;;;;;20.75;12.25;;;;;;;18.18;47.53;99934.69;2284448;77;51442;-72
2020/12/11 04:37:42;;;;;;;19.15;12.07;;;;;;;18.18;47.54;99941.38;2283436;78;50270;-73
2020/12/11 04:40:44;;;;;;;20.23;12.05;;;;;;;18.16;47.61;99934.05;2283263;78;50757;-73
2020/12/11 04:43:50;;;;;;;17.65;11.48;;;;;;;18.16;47.55;99934.05;2283543;77;52215;-72
2020/12/11 04:46:52;;;;;;;19.12;11.57;;;;;;;18.17;47.56;99930.37;2283510;78;51530;-74
2020/12/11 04:49:55;;;;;;;19.40;11.40;;;;;;;18.14;47.61;99922.73;2283417;78;51487;-73
2020/12/11 04:52:57;;;;;;;20.82;11.38;;;;;;;18.14;47.60;99914.70;2283578;78;52630;-72
2020/12/11 04:56:01;;;;;;;17.75;10.90;;;;;;;18.11;47.65;99922.62;2283633;78;51520;-73
2020/12/11 04:59:03;;;;;;;16.82;10.60;;;;;;;18.12;47.59;99910.05;2283587;78;51639;-75
2020/12/11 05:02:09;;;;;;;21.23;12.05;;;;;;;18.11;47.60;99909.23;2284642;77;50340;-73
2020/12/11 05:05:11;;;;;;;17.75;10.78;;;;;;;18.10;47.63;99902.72;2296700;77;49895;-74
2020/12/11 05:08:20;;;;;;;18.92;12.13;;;;;;;18.08;47.65;99900.75;2296764;77;52287;-73
2020/12/11 05:11:28;;;;;;;21.17;11.38;;;;;;;18.08;47.67;99892.72;2296801;77;51428;-72
2020/12/11 05:14:31;;;;;;;21.65;11.50;;;;;;;18.06;47.72;99896.44;2295727;77;51163;-72
2020/12/11 05:17:38;;;;;;;20.43;12.15;;;;;;;18.05;47.71;99892.08;2296947;76;51516;-74
2020/12/11 05:20:40;;;;;;;20.97;10.93;;;;;;;18.04;47.70;99876.23;2296724;77;51490;-72
2020/12/11 05:24:05;;;;;;;17.52;11.25;;;;;;;18.04;47.77;99877.58;2296917;77;51627;-74
2020/12/11 05:27:08;;;;;;;18.57;11.12;;;;;;;18.04;47.69;99870.36;2296939;77;50770;-73
2020/12/11 05:30:16;;;;;;;19.45;11.78;;;;;;;18.02;47.78;99881.78;2273150;77;50437;-73
2020/12/11 05:33:19;;;;;;;18.70;11.53;;;;;;;18.02;47.79;99871.59;2297056;77;50333;-73
2020/12/11 05:36:21;;;;;;;17.90;11.08;;;;;;;18.00;47.79;99870.95;2296855;77;50422;-73
2020/12/11 05:39:32;;;;;;;18.45;11.22;;;;;;;18.00;47.83;99884.34;2296994;77;50227;-73
2020/12/11 05:42:34;;;;;;;21.65;10.75;;;;;;;18.01;47.85;99888.17;2297271;77;50852;-72
2020/12/11 05:45:37;;;;;;;19.82;11.73;;;;;;;18.02;47.83;99885.80;2297207;77;51565;-72
2020/12/11 05:48:40;;;;;;;20.57;11.88;;;;;;;18.00;47.83;99878.47;2296963;77;51639;-72
2020/12/11 05:51:42;;;;;;;19.62;11.05;;;;;;;17.99;47.81;99867.45;2297202;77;51598;-73
2020/12/11 05:54:49;;;;;;;19.10;11.88;;;;;;;18.02;47.76;99876.94;2297422;77;51638;-73
2020/12/11 05:57:58;;;;;;;16.90;10.80;;;;;;;18.02;47.75;99878.28;2297482;77;50416;-73
2020/12/11 06:01:01;;;;;;;18.70;11.40;;;;;;;18.05;47.65;99883.23;2297315;77;50280;-73
2020/12/11 06:04:03;;;;;;;19.07;11.22;;;;;;;18.07;47.57;99871.82;2297275;77;51622;-76
2020/12/11 06:07:13;;;;;;;18.95;11.33;;;;;;;18.09;47.53;99865.77;2297494;77;51616;-77
2020/12/11 06:10:19;;;;;;;18.07;10.72;;;;;;;18.12;47.45;99867.22;2297350;77;51551;-72
2020/12/11 06:13:39;;;;;;;17.17;10.35;;;;;;;18.14;47.36;99865.99;2297533;77;50495;-77
2020/12/11 06:16:41;;;;;;;18.60;10.48;;;;;;;18.19;47.31;99878.27;2265736;77;50683;-73
2020/12/11 06:19:44;;;;;;;19.67;10.70;;;;;;;18.23;47.26;99870.66;2298386;77;51559;-77
2020/12/11 06:22:47;;;;;;;21.02;11.03;;;;;;;18.28;47.25;99872.22;2302769;76;50480;-74
2020/12/11 06:25:55;;;;;;;16.48;10.25;;;;;;;18.32;47.17;99872.66;2302769;77;50380;-74
2020/12/11 06:28:58;;;;;;;17.87;10.48;;;;;;;18.34;47.21;99871.44;2302696;77;51535;-75
2020/12/11 06:32:00;;;;;;;19.60;9.98;;;;;;;18.35;47.64;99867.72;2302795;77;50672;-73
2020/12/11 06:35:13;;;;;;;20.52;11.08;;;;;;;18.40;47.42;99873.30;2308635;77;51572;-75
2020/12/11 06:38:35;;;;;;;22.90;10.20;;;;;;;18.46;48.62;99871.15;2275118;77;51596;-76
2020/12/11 06:41:39;;;;;;;20.08;10.65;;;;;;;18.60;47.70;99857.78;2297215;77;50831;-75
2020/12/11 06:44:41;;;;;;;17.20;9.73;;;;;;;18.76;47.19;99853.44;2296748;77;50408;-75
2020/12/11 06:47:53;;;;;;;18.82;10.03;;;;;;;18.85;46.94;99852.20;2296975;77;50384;-74
2020/12/11 06:51:03;;;;;;;19.27;10.35;;;;;;;18.88;47.20;99843.78;2293779;77;50237;-75
2020/12/11 06:54:05;;;;;;;20.45;10.60;;;;;;;18.89;47.37;99845.94;2292321;77;50762;-75
2020/12/11 06:57:08;;;;;;;21.87;10.45;;;;;;;18.92;47.56;99836.14;2292349;77;50356;-75
2020/12/11 07:00:24;;;;;;;21.62;10.60;;;;;;;18.96;47.44;99833.86;2297039;77;50724;-75
2020/12/11 07:03:27;;;;;;;22.17;9.85;;;;;;;18.91;47.75;99833.98;2302231;77;50772;-75
2020/12/11 07:06:29;;;;;;;20.80;9.88;;;;;;;18.99;47.55;99830.80;2292964;76;51455;-75
2020/12/11 07:09:33;;;;;;;23.40;11.18;;;;;;;19.01;47.57;99827.36;2292113;77;51507;-75
2020/12/11 07:12:35;;;;;;;22.95;10.85;;;;;;;19.01;47.51;99821.52;2292481;77;50459;-78
2020/12/11 07:15:38;;;;;;;23.67;10.63;;;;;;;19.02;47.52;99823.16;2299086;77;50357;-76
2020/12/11 07:18:41;;;;;;;29.05;11.15;;;;;;;19.07;47.37;99818.00;2302049;75;50413;-76
2020/12/11 07:21:43;;;;;;;23.60;10.32;;;;;;;19.08;47.34;99818.30;2302083;77;50709;-76
2020/12/11 07:24:45;;;;;;;28.47;11.33;;;;;;;19.08;47.33;99825.52;2302126;77;52303;-77
2020/12/11 07:28:00;;;;;;;29.52;10.90;;;;;;;19.11;47.20;99829.97;2302247;77;50326;-78
2020/12/11 07:31:03;;;;;;;24.57;10.37;;;;;;;19.14;47.11;99831.41;2302308;77;51583;-76
2020/12/11 07:34:15;;;;;;;20.90;10.78;;;;;;;19.17;46.98;99832.86;2298296;77;52301;-77
2020/12/11 07:37:17;;;;;;;23.27;10.80;;;;;;;19.16;46.93;99832.01;2298123;77;50452;-77
2020/12/11 07:40:21;;;;;;;25.27;12.07;;;;;;;19.17;46.81;99832.34;2295334;77;50427;-77
2020/12/11 07:43:24;;;;;;;22.22;10.72;;;;;;;19.18;46.76;99831.81;2296864;76;51546;-78
2020/12/11 07:46:26;;;;;;;25.25;11.08;;;;;;;19.20;46.63;99829.23;2298708;76;50846;-77
2020/12/11 07:49:38;;;;;;;20.57;9.73;;;;;;;19.47;45.96;99834.56;2296807;77;50378;-77
2020/12/11 07:52:41;;;;;;;17.20;9.50;;;;;;;19.60;45.33;99833.23;2297129;77;51529;-77
2020/12/11 07:55:43;;;;;;;24.15;11.35;;;;;;;19.72;44.80;99823.50;2297044;77;50325;-77
2020/12/11 07:58:45;;;;;;;18.82;10.38;;;;;;;19.79;44.49;99826.19;2296798;77;50333;-78
2020/12/11 08:01:47;;;;;;;21.25;10.65;;;;;;;19.84;44.28;99829.06;2296645;77;50724;-79
2020/12/11 08:04:50;;;;;;;20.45;10.58;;;;;;;19.85;44.18;99833.91;2296695;77;51534;-78
2020/12/11 08:07:53;;;;;;;19.90;9.98;;;;;;;19.89;44.03;99823.06;2297010;77;50821;-77
2020/12/11 08:10:55;;;;;;;23.57;10.15;;;;;;;19.91;43.86;99824.50;2296894;77;51661;-77
2020/12/11 08:14:03;;;;;;;19.02;10.10;;;;;;;19.94;43.69;99823.25;2297679;77;51593;-77
2020/12/11 08:17:08;;;;;;;22.00;10.80;;;;;;;19.89;43.85;99821.72;2278768;76;50794;-77
2020/12/11 08:20:12;;;;;;;22.02;10.88;;;;;;;19.88;43.74;99832.95;2303463;76;50767;-76
2020/12/11 08:23:19;;;;;;;21.85;11.03;;;;;;;19.91;43.63;99827.19;2302269;77;50835;-77
2020/12/11 08:26:21;;;;;;;27.13;10.80;;;;;;;19.86;43.77;99819.43;2302005;76;50741;-75
2020/12/11 08:29:23;;;;;;;20.05;10.88;;;;;;;19.88;43.70;99826.23;2328450;76;51416;-77
2020/12/11 08:32:26;;;;;;;21.95;10.60;;;;;;;19.93;43.54;99825.09;2321860;76;50728;-78
2020/12/11 08:35:29;;;;;;;21.70;10.60;;;;;;;19.95;43.45;99832.94;2299520;77;50084;-76
2020/12/11 08:38:31;;;;;;;18.42;10.82;;;;;;;19.97;43.36;99833.56;2301083;76;52767;-77
2020/12/11 08:41:37;;;;;;;18.92;10.50;;;;;;;19.99;43.28;99833.66;2267862;77;50682;-77
2020/12/11 08:51:13;;;;;;;19.10;9.88;;;;;;;19.93;43.69;99829.64;2295321;76;22915;-77
2020/12/11 08:54:17;;;;;;;17.57;9.80;;;;;;;20.00;43.54;99831.78;2297696;76;50326;-77
2020/12/11 08:57:19;;;;;;;25.40;11.38;;;;;;;20.00;43.43;99829.92;2301314;76;50461;-76
2020/12/11 09:00:22;;;;;;;19.07;10.10;;;;;;;20.02;43.35;99836.44;2297022;77;50621;-77
2020/12/11 09:03:24;;;;;;;16.37;9.35;;;;;;;20.11;43.09;99823.05;2301273;76;51535;-76
2020/12/11 09:06:26;;;;;;;19.30;9.75;;;;;;;20.07;43.17;99821.85;2297276;77;51451;-77
2020/12/11 09:09:28;;;;;;;22.07;10.98;;;;;;;20.09;43.09;99821.13;2307831;76;51526;-76
2020/12/11 09:12:31;;;;;;;17.40;10.45;;;;;;;20.09;43.09;99818.94;2299013;77;50387;-77
2020/12/11 09:15:33;;;;;;;20.12;10.60;;;;;;;20.05;43.13;99830.63;2283759;77;51419;-78
2020/12/11 09:18:35;;;;;;;16.95;10.10;;;;;;;20.03;43.18;99825.17;2293899;75;50539;-78
2020/12/11 09:21:37;;;;;;;18.62;10.88;;;;;;;20.08;43.06;99822.14;2285783;76;50422;-78
2020/12/11 09:24:39;;;;;;;19.70;10.43;;;;;;;20.10;42.93;99812.02;2313793;75;51724;-77
2020/12/11 09:27:43;;;;;;;18.17;10.25;;;;;;;20.11;42.96;99805.59;2316632;76;50146;-77
2020/12/11 09:30:47;;;;;;;16.80;10.28;;;;;;;20.13;42.91;99808.08;2267285;77;51558;-77
2020/12/11 09:33:49;;;;;;;16.62;10.75;;;;;;;20.13;42.96;99802.19;2281062;77;50694;-77
2020/12/11 09:36:51;;;;;;;18.15;9.90;;;;;;;20.10;43.06;99801.28;2294288;77;50310;-78
2020/12/11 09:39:53;;;;;;;18.67;10.40;;;;;;;20.08;43.27;99802.53;2296688;77;50307;-78
2020/12/11 09:46:21;;;;;;;16.70;10.03;;;;;;;20.14;43.33;99798.48;2319580;76;23620;-78
2020/12/11 09:49:27;;;;;;;17.00;9.93;;;;;;;20.14;43.38;99798.48;2320808;76;22367;-77
2020/12/11 09:52:50;;;;;;;17.55;10.00;;;;;;;20.12;43.46;99792.50;2321234;76;22872;-76
2020/12/11 09:55:47;;;;;;;18.05;10.30;;;;;;;20.19;43.36;99781.20;2271038;77;22234;-78
2020/12/11 09:58:46;;;;;;;18.90;10.58;;;;;;;20.16;43.43;99773.55;2301167;77;23146;-77
2020/12/11 10:04:55;;;;;;;19.87;10.55;;;;;;;20.14;43.47;99755.51;2304861;76;22404;-77
2020/12/11 10:07:57;;;;;;;17.57;10.43;;;;;;;20.19;43.38;99757.03;2321619;76;50373;-78
2020/12/11 10:10:59;;;;;;;17.42;10.10;;;;;;;20.18;43.44;99745.14;2323040;76;50724;-76
2020/12/11 10:17:22;;;;;;;18.05;10.25;;;;;;;20.21;43.37;99735.31;2297618;77;22311;-77
2020/12/11 10:20:24;;;;;;;20.05;10.72;;;;;;;20.22;43.32;99729.73;2321270;76;50768;-78
2020/12/11 10:23:29;;;;;;;17.73;11.05;;;;;;;20.19;43.40;99727.48;2323080;76;51658;-77
2020/12/11 10:26:30;;;;;;;18.52;10.25;;;;;;;20.19;43.40;99725.30;2323366;76;22309;-76
2020/12/11 10:29:33;;;;;;;16.97;10.30;;;;;;;20.20;43.36;99702.26;2307723;76;51642;-76
2020/12/11 10:32:35;;;;;;;16.87;10.25;;;;;;;20.25;43.30;99702.14;2297128;77;51001;-75
2020/12/11 10:35:37;;;;;;;18.60;10.58;;;;;;;20.29;43.23;99693.93;2297468;77;52297;-75
2020/12/11 10:38:39;;;;;;;19.40;10.60;;;;;;;20.22;43.30;99698.84;2287838;77;50161;-78
2020/12/11 10:41:42;;;;;;;14.07;8.68;;;;;;;20.26;43.21;99687.66;2259339;78;50311;-76
2020/12/11 10:44:44;;;;;;;15.40;10.18;;;;;;;20.31;43.10;99685.95;2282315;75;51627;-77
2020/12/11 10:47:46;;;;;;;15.55;9.45;;;;;;;20.31;43.14;99689.17;2306298;76;51602;-74
2020/12/11 10:50:48;;;;;;;16.25;9.98;;;;;;;20.28;43.19;99678.34;2285065;77;50807;-75
2020/12/11 10:53:51;;;;;;;15.70;10.18;;;;;;;20.32;43.11;99676.03;2300679;77;51649;-75
2020/12/11 10:56:53;;;;;;;17.65;10.00;;;;;;;20.37;43.01;99671.67;2310275;76;51487;-77
2020/12/11 10:59:56;;;;;;;17.85;10.00;;;;;;;20.35;43.08;99667.56;2311530;76;51756;-75
2020/12/11 11:02:58;;;;;;;16.25;9.65;;;;;;;20.32;43.12;99662.59;2306177;76;50809;-75
2020/12/11 11:06:05;;;;;;;18.27;10.20;;;;;;;20.30;43.13;99663.36;2297538;76;51563;-76
2020/12/11 11:12:20;;;;;;;16.23;9.40;;;;;;;20.39;42.93;99662.03;2314591;76;22938;-81
2020/12/11 11:15:38;;;;;;;15.28;9.23;;;;;;;20.36;43.01;99661.12;2296480;77;22770;-77
2020/12/11 11:18:39;;;;;;;13.75;9.33;;;;;;;20.40;42.92;99659.14;2318084;76;22447;-77
2020/12/11 11:21:54;;;;;;;15.18;9.90;;;;;;;20.38;43.00;99663.08;2314813;76;22372;-77
2020/12/11 11:28:09;;;;;;;16.05;9.20;;;;;;;20.36;43.05;99657.09;2312911;76;22416;-76
2020/12/11 11:31:12;;;;;;;15.65;10.05;;;;;;;20.38;42.99;99653.16;2311151;76;50728;-78
2020/12/11 11:34:14;;;;;;;15.88;9.50;;;;;;;20.44;42.87;99644.73;2302619;76;50262;-77
2020/12/11 11:37:16;;;;;;;19.70;9.68;;;;;;;20.42;42.94;99650.84;2295944;77;50410;-77
2020/12/11 11:40:18;;;;;;;17.15;10.03;;;;;;;20.44;42.91;99650.11;2296756;77;50734;-77
2020/12/11 11:43:45;;;;;;;16.45;9.58;;;;;;;20.38;42.95;99641.59;2296521;76;51511;-77
2020/12/11 11:46:29;;;;;;;16.97;9.10;;;;;;;20.41;42.86;99641.14;2293637;77;23496;-75
2020/12/11 11:49:55;;;;;;;18.45;10.18;;;;;;;20.46;42.71;99630.56;2273265;77;51577;-77
2020/12/11 11:52:38;;;;;;;18.02;9.95;;;;;;;20.41;42.93;99629.05;2294746;76;23175;-77
2020/12/11 11:55:40;;;;;;;15.75;9.53;;;;;;;20.45;42.87;99632.43;2315037;76;21875;-78
2020/12/11 11:58:42;;;;;;;15.15;9.83;;;;;;;20.45;42.85;99620.87;2273742;76;50798;-77
2020/12/11 12:01:45;;;;;;;17.57;9.90;;;;;;;20.51;42.78;99628.56;2270213;77;50329;-77
2020/12/11 12:04:47;;;;;;;14.63;9.18;;;;;;;20.49;42.82;99619.36;2296913;77;50676;-77
2020/12/11 12:07:49;;;;;;;16.07;10.23;;;;;;;20.47;42.88;99609.35;2296844;77;51607;-78
2020/12/11 12:10:51;;;;;;;17.75;10.53;;;;;;;20.50;42.92;99616.15;2296728;77;51534;-77
2020/12/11 12:13:54;;;;;;;15.38;9.60;;;;;;;20.48;42.91;99614.23;2297282;76;51461;-78
2020/12/11 12:17:00;;;;;;;17.10;9.75;;;;;;;20.54;42.78;99613.34;2299649;76;51598;-77
2020/12/11 12:20:06;;;;;;;17.87;10.48;;;;;;;20.52;42.85;99612.20;2315285;76;22996;-77
2020/12/11 12:29:41;;;;;;;12.78;8.73;;;;;;;20.60;42.66;99590.97;2298450;77;22271;-77
2020/12/11 12:36:34;;;;;;;15.72;9.83;;;;;;;20.59;42.77;99594.71;2259351;78;22412;-77
2020/12/11 12:39:34;;;;;;;15.43;9.28;;;;;;;20.55;42.86;99593.00;2280776;76;22379;-78
2020/12/11 12:45:41;;;;;;;15.40;9.50;;;;;;;20.55;42.92;99583.59;2322959;76;22803;-76
2020/12/11 12:48:43;;;;;;;19.82;10.40;;;;;;;20.58;42.77;99575.08;2322478;76;51565;-78
2020/12/11 12:51:45;;;;;;;14.25;9.58;;;;;;;20.56;42.86;99579.85;2322803;76;50051;-77
2020/12/11 12:54:47;;;;;;;14.40;9.85;;;;;;;20.57;42.84;99578.80;2322704;76;50710;-78
2020/12/11 12:57:57;;;;;;;14.43;9.38;;;;;;;20.62;42.79;99577.61;2322757;76;51494;-78
2020/12/11 13:01:07;;;;;;;15.98;9.93;;;;;;;20.61;42.77;99578.66;2321941;76;22386;-78
2020/12/11 13:04:22;;;;;;;14.55;9.20;;;;;;;20.62;42.76;99577.61;2303140;76;22307;-78
2020/12/11 13:07:18;;;;;;;;;;;;;;;20.64;42.80;99566.65;2297295;76;22619;-78
2020/12/11 13:10:20;;;;;;;15.32;9.05;;;;;;;20.63;42.82;99563.14;2258793;78;50503;-78
2020/12/11 13:13:22;;;;;;;16.40;9.70;;;;;;;20.61;42.87;99560.38;2307789;76;50705;-78
2020/12/11 13:16:26;;;;;;;15.68;9.48;;;;;;;20.62;42.88;99562.83;2320888;76;50775;-77
2020/12/11 13:19:30;;;;;;;14.43;9.25;;;;;;;20.64;42.83;99554.02;2296693;76;50413;-77
2020/12/11 13:25:19;;;;;;;13.75;9.28;;;;;;;20.66;42.81;99560.00;2307712;76;51518;-77
2020/12/11 13:28:49;;;;;;;16.32;9.98;;;;;;;20.66;42.88;99551.94;2312826;76;23652;-77
2020/12/11 13:31:55;;;;;;;15.63;9.23;;;;;;;20.68;42.88;99549.53;2320951;76;51538;-76
2020/12/11 13:34:57;;;;;;;13.68;8.88;;;;;;;20.72;42.75;99548.06;2306548;76;51533;-77
2020/12/11 13:37:59;;;;;;;15.40;9.20;;;;;;;20.70;42.85;99551.48;2305214;76;50705;-78
2020/12/11 13:41:01;;;;;;;14.07;9.10;;;;;;;20.66;42.82;99545.22;2323486;76;51585;-77
2020/12/11 13:44:04;;;;;;;15.20;9.53;;;;;;;20.75;42.58;99551.64;2293658;76;51492;-77
2020/12/11 13:47:07;;;;;;;14.20;8.90;;;;;;;20.68;42.59;99540.98;2274899;77;50687;-78
2020/12/11 13:50:09;;;;;;;14.60;9.33;;;;;;;20.69;42.53;99531.86;2285103;76;50624;-76
2020/12/11 13:53:11;;;;;;;16.50;9.45;;;;;;;20.70;42.59;99537.52;2326713;76;51708;-77
2020/12/11 13:56:16;;;;;;;23.47;9.80;;;;;;;20.76;42.52;99526.41;2311765;76;51742;-77
2020/12/11 13:59:18;;;;;;;16.02;8.93;;;;;;;20.74;42.58;99530.66;2300364;77;50417;-79
2020/12/11 14:02:21;;;;;;;19.15;10.10;;;;;;;20.74;42.60;99530.66;2300185;77;50263;-78
2020/12/11 14:05:23;;;;;;;15.88;9.20;;;;;;;20.69;42.68;99529.70;2301464;76;50758;-77
2020/12/11 14:08:25;;;;;;;15.25;9.08;;;;;;;20.72;42.58;99521.17;2321782;76;50593;-78
2020/12/11 14:11:27;;;;;;;15.55;9.03;;;;;;;20.78;42.50;99521.11;2312883;76;51537;-78
2020/12/11 14:14:30;;;;;;;12.73;9.05;;;;;;;20.84;42.34;99524.77;2297101;77;50759;-78
2020/12/11 14:17:51;;;;;;;14.90;9.23;;;;;;;20.80;42.35;99524.38;2298150;76;50399;-79
2020/12/11 14:20:42;;;;;;;16.57;9.45;;;;;;;20.76;42.46;99517.82;2293940;76;22409;-78
2020/12/11 14:23:40;;;;;;;16.42;9.40;;;;;;;20.77;42.47;99532.08;2297161;76;22428;-78
2020/12/11 14:26:49;;;;;;;17.07;10.03;;;;;;;20.76;42.46;99526.41;2308377;76;50360;-78
2020/12/11 14:29:46;;;;;;;14.90;9.08;;;;;;;20.76;42.50;99519.70;2321661;76;22713;-78
2020/12/11 14:32:48;;;;;;;15.35;9.40;;;;;;;20.74;42.56;99523.13;2321659;76;51659;-78
2020/12/11 14:35:50;;;;;;;15.63;9.43;;;;;;;20.77;42.51;99515.95;2323288;76;51507;-78
2020/12/11 14:41:59;;;;;;;15.65;9.73;;;;;;;20.79;42.55;99513.86;2298077;77;22805;-79
2020/12/11 14:45:01;;;;;;;14.43;8.88;;;;;;;20.76;42.56;99510.28;2297665;77;52487;-77